sensor_id;sensor_type;location;lat;lon;timestamp;P1;durP1;ratioP1;P2;durP2;ratioP2
33148;SDS011;19506;51.040;3.856;2023-07-02T00:01:37;40.08;;;18.85;;
33148;SDS011;19506;51.040;3.856;2023-07-02T00:04:03;41.53;;;18.55;;
33148;SDS011;19506;51.040;3.856;2023-07-02T00:06:29;41.30;;;19.17;;
33148;SDS011;19506;51.040;3.856;2023-07-02T00:08:58;44.33;;;20.55;;
33148;SDS011;19506;51.040;3.856;2023-07-02T00:11:24;40.60;;;18.73;;
33148;SDS011;19506;51.040;3.856;2023-07-02T00:13:50;49.55;;;20.25;;
33148;SDS011;19506;51.040;3.856;2023-07-02T00:16:16;46.67;;;19.63;;
33148;SDS011;19506;51.040;3.856;2023-07-02T00:18:42;48.67;;;20.67;;
33148;SDS011;19506;51.040;3.856;2023-07-02T00:21:07;40.25;;;19.65;;
33148;SDS011;19506;51.040;3.856;2023-07-02T00:23:38;48.85;;;20.85;;
33148;SDS011;19506;51.040;3.856;2023-07-02T00:26:03;44.28;;;19.95;;
33148;SDS011;19506;51.040;3.856;2023-07-02T00:28:29;44.72;;;19.50;;
33148;SDS011;19506;51.040;3.856;2023-07-02T00:30:55;43.97;;;19.10;;
33148;SDS011;19506;51.040;3.856;2023-07-02T00:33:20;45.50;;;20.08;;
33148;SDS011;19506;51.040;3.856;2023-07-02T00:35:46;58.85;;;21.55;;
33148;SDS011;19506;51.040;3.856;2023-07-02T00:38:11;53.80;;;21.50;;
33148;SDS011;19506;51.040;3.856;2023-07-02T00:40:37;48.78;;;21.25;;
33148;SDS011;19506;51.040;3.856;2023-07-02T00:43:03;44.35;;;19.17;;
33148;SDS011;19506;51.040;3.856;2023-07-02T00:45:29;45.00;;;20.27;;
33148;SDS011;19506;51.040;3.856;2023-07-02T00:47:56;42.08;;;17.38;;
33148;SDS011;19506;51.040;3.856;2023-07-02T00:50:22;43.53;;;19.23;;
33148;SDS011;19506;51.040;3.856;2023-07-02T00:52:48;40.10;;;19.25;;
33148;SDS011;19506;51.040;3.856;2023-07-02T00:55:14;42.63;;;19.83;;
33148;SDS011;19506;51.040;3.856;2023-07-02T00:57:40;55.17;;;21.77;;
33148;SDS011;19506;51.040;3.856;2023-07-02T01:00:11;43.88;;;19.45;;
33148;SDS011;19506;51.040;3.856;2023-07-02T01:02:38;39.47;;;19.80;;
33148;SDS011;19506;51.040;3.856;2023-07-02T01:05:08;42.80;;;19.92;;
33148;SDS011;19506;51.040;3.856;2023-07-02T01:07:34;46.50;;;19.98;;
33148;SDS011;19506;51.040;3.856;2023-07-02T01:09:59;53.50;;;20.98;;
33148;SDS011;19506;51.040;3.856;2023-07-02T01:12:25;39.88;;;19.35;;
33148;SDS011;19506;51.040;3.856;2023-07-02T01:14:52;45.63;;;19.33;;
33148;SDS011;19506;51.040;3.856;2023-07-02T01:17:20;44.10;;;18.33;;
33148;SDS011;19506;51.040;3.856;2023-07-02T01:19:55;44.42;;;20.80;;
33148;SDS011;19506;51.040;3.856;2023-07-02T01:22:26;43.20;;;19.42;;
33148;SDS011;19506;51.040;3.856;2023-07-02T01:24:53;36.15;;;19.20;;
33148;SDS011;19506;51.040;3.856;2023-07-02T01:27:20;47.22;;;20.75;;
33148;SDS011;19506;51.040;3.856;2023-07-02T01:29:46;41.03;;;19.70;;
33148;SDS011;19506;51.040;3.856;2023-07-02T01:32:16;40.53;;;20.20;;
33148;SDS011;19506;51.040;3.856;2023-07-02T01:34:41;41.17;;;19.67;;
33148;SDS011;19506;51.040;3.856;2023-07-02T01:37:14;35.83;;;17.98;;
33148;SDS011;19506;51.040;3.856;2023-07-02T01:39:40;44.70;;;20.10;;
33148;SDS011;19506;51.040;3.856;2023-07-02T01:42:09;36.72;;;18.98;;
33148;SDS011;19506;51.040;3.856;2023-07-02T01:44:36;34.92;;;18.10;;
33148;SDS011;19506;51.040;3.856;2023-07-02T01:47:03;42.75;;;18.65;;
33148;SDS011;19506;51.040;3.856;2023-07-02T01:49:29;40.78;;;20.35;;
33148;SDS011;19506;51.040;3.856;2023-07-02T01:51:55;41.92;;;20.67;;
33148;SDS011;19506;51.040;3.856;2023-07-02T01:54:22;38.95;;;18.95;;
33148;SDS011;19506;51.040;3.856;2023-07-02T01:56:52;43.08;;;20.10;;
33148;SDS011;19506;51.040;3.856;2023-07-02T01:59:18;42.40;;;19.10;;
33148;SDS011;19506;51.040;3.856;2023-07-02T02:01:44;41.40;;;18.95;;
33148;SDS011;19506;51.040;3.856;2023-07-02T02:04:10;40.72;;;18.48;;
33148;SDS011;19506;51.040;3.856;2023-07-02T02:06:36;43.63;;;18.77;;
33148;SDS011;19506;51.040;3.856;2023-07-02T02:09:03;46.20;;;20.33;;
33148;SDS011;19506;51.040;3.856;2023-07-02T02:11:30;45.50;;;18.35;;
33148;SDS011;19506;51.040;3.856;2023-07-02T02:13:56;39.50;;;18.40;;
33148;SDS011;19506;51.040;3.856;2023-07-02T02:16:23;42.40;;;19.77;;
33148;SDS011;19506;51.040;3.856;2023-07-02T02:18:49;43.05;;;19.92;;
33148;SDS011;19506;51.040;3.856;2023-07-02T02:21:18;42.60;;;18.70;;
33148;SDS011;19506;51.040;3.856;2023-07-02T02:23:44;40.85;;;20.63;;
33148;SDS011;19506;51.040;3.856;2023-07-02T02:26:10;44.92;;;19.85;;
33148;SDS011;19506;51.040;3.856;2023-07-02T02:28:36;40.33;;;19.25;;
33148;SDS011;19506;51.040;3.856;2023-07-02T02:31:01;44.20;;;20.52;;
33148;SDS011;19506;51.040;3.856;2023-07-02T02:33:27;39.67;;;17.67;;
33148;SDS011;19506;51.040;3.856;2023-07-02T02:35:53;46.65;;;20.75;;
33148;SDS011;19506;51.040;3.856;2023-07-02T02:38:19;37.25;;;17.83;;
33148;SDS011;19506;51.040;3.856;2023-07-02T02:40:45;40.40;;;19.67;;
33148;SDS011;19506;51.040;3.856;2023-07-02T02:43:10;39.10;;;19.77;;
33148;SDS011;19506;51.040;3.856;2023-07-02T02:45:36;38.10;;;18.65;;
33148;SDS011;19506;51.040;3.856;2023-07-02T02:48:02;40.15;;;19.42;;
33148;SDS011;19506;51.040;3.856;2023-07-02T02:50:27;42.58;;;20.45;;
33148;SDS011;19506;51.040;3.856;2023-07-02T02:52:53;41.03;;;19.48;;
33148;SDS011;19506;51.040;3.856;2023-07-02T02:55:19;40.13;;;17.33;;
33148;SDS011;19506;51.040;3.856;2023-07-02T02:57:44;42.17;;;20.13;;
33148;SDS011;19506;51.040;3.856;2023-07-02T03:00:10;40.13;;;20.23;;
33148;SDS011;19506;51.040;3.856;2023-07-02T03:02:37;37.03;;;19.65;;
33148;SDS011;19506;51.040;3.856;2023-07-02T03:05:03;41.72;;;19.38;;
33148;SDS011;19506;51.040;3.856;2023-07-02T03:07:30;37.25;;;19.60;;
33148;SDS011;19506;51.040;3.856;2023-07-02T03:09:57;39.33;;;19.38;;
33148;SDS011;19506;51.040;3.856;2023-07-02T03:12:22;39.42;;;19.23;;
33148;SDS011;19506;51.040;3.856;2023-07-02T03:14:48;39.08;;;19.33;;
33148;SDS011;19506;51.040;3.856;2023-07-02T03:17:18;38.15;;;19.55;;
33148;SDS011;19506;51.040;3.856;2023-07-02T03:19:44;42.55;;;20.48;;
33148;SDS011;19506;51.040;3.856;2023-07-02T03:22:10;39.25;;;18.70;;
33148;SDS011;19506;51.040;3.856;2023-07-02T03:24:36;46.45;;;20.00;;
33148;SDS011;19506;51.040;3.856;2023-07-02T03:27:02;41.47;;;19.98;;
33148;SDS011;19506;51.040;3.856;2023-07-02T03:29:27;48.00;;;20.20;;
33148;SDS011;19506;51.040;3.856;2023-07-02T03:31:53;43.10;;;19.23;;
33148;SDS011;19506;51.040;3.856;2023-07-02T03:34:19;45.45;;;20.17;;
33148;SDS011;19506;51.040;3.856;2023-07-02T03:36:44;38.10;;;19.70;;
33148;SDS011;19506;51.040;3.856;2023-07-02T03:39:10;37.83;;;18.73;;
33148;SDS011;19506;51.040;3.856;2023-07-02T03:41:36;39.08;;;19.27;;
33148;SDS011;19506;51.040;3.856;2023-07-02T03:44:01;43.63;;;20.58;;
33148;SDS011;19506;51.040;3.856;2023-07-02T03:46:27;35.78;;;19.92;;
33148;SDS011;19506;51.040;3.856;2023-07-02T03:48:53;43.00;;;20.58;;
33148;SDS011;19506;51.040;3.856;2023-07-02T03:51:18;35.22;;;18.27;;
33148;SDS011;19506;51.040;3.856;2023-07-02T03:53:44;39.08;;;20.83;;
33148;SDS011;19506;51.040;3.856;2023-07-02T03:56:09;41.25;;;20.95;;
33148;SDS011;19506;51.040;3.856;2023-07-02T03:58:35;43.50;;;20.88;;
33148;SDS011;19506;51.040;3.856;2023-07-02T04:01:01;37.72;;;20.85;;
33148;SDS011;19506;51.040;3.856;2023-07-02T04:03:26;40.97;;;19.20;;
33148;SDS011;19506;51.040;3.856;2023-07-02T04:05:52;41.75;;;19.35;;
33148;SDS011;19506;51.040;3.856;2023-07-02T04:08:18;39.85;;;19.95;;
33148;SDS011;19506;51.040;3.856;2023-07-02T04:10:46;40.85;;;19.33;;
33148;SDS011;19506;51.040;3.856;2023-07-02T04:13:11;39.47;;;19.27;;
33148;SDS011;19506;51.040;3.856;2023-07-02T04:15:37;39.95;;;19.50;;
33148;SDS011;19506;51.040;3.856;2023-07-02T04:18:03;45.00;;;20.38;;
33148;SDS011;19506;51.040;3.856;2023-07-02T04:20:29;40.80;;;20.58;;
33148;SDS011;19506;51.040;3.856;2023-07-02T04:22:55;47.13;;;20.95;;
33148;SDS011;19506;51.040;3.856;2023-07-02T04:25:21;45.53;;;20.33;;
33148;SDS011;19506;51.040;3.856;2023-07-02T04:27:47;38.00;;;20.55;;
33148;SDS011;19506;51.040;3.856;2023-07-02T04:30:12;40.85;;;19.90;;
33148;SDS011;19506;51.040;3.856;2023-07-02T04:32:39;38.20;;;19.92;;
33148;SDS011;19506;51.040;3.856;2023-07-02T04:35:08;42.08;;;19.75;;
33148;SDS011;19506;51.040;3.856;2023-07-02T04:37:35;41.85;;;20.88;;
33148;SDS011;19506;51.040;3.856;2023-07-02T04:40:01;43.78;;;18.48;;
33148;SDS011;19506;51.040;3.856;2023-07-02T04:42:29;40.53;;;19.08;;
33148;SDS011;19506;51.040;3.856;2023-07-02T04:44:56;37.70;;;19.20;;
33148;SDS011;19506;51.040;3.856;2023-07-02T04:47:28;49.13;;;20.45;;
33148;SDS011;19506;51.040;3.856;2023-07-02T04:49:54;40.20;;;18.98;;
33148;SDS011;19506;51.040;3.856;2023-07-02T04:52:19;37.92;;;19.80;;
33148;SDS011;19506;51.040;3.856;2023-07-02T04:54:45;38.13;;;19.65;;
33148;SDS011;19506;51.040;3.856;2023-07-02T04:57:11;33.47;;;19.13;;
33148;SDS011;19506;51.040;3.856;2023-07-02T04:59:38;49.55;;;20.95;;
33148;SDS011;19506;51.040;3.856;2023-07-02T05:02:04;45.85;;;20.42;;
33148;SDS011;19506;51.040;3.856;2023-07-02T05:04:30;37.70;;;19.80;;
33148;SDS011;19506;51.040;3.856;2023-07-02T05:06:55;43.88;;;20.25;;
33148;SDS011;19506;51.040;3.856;2023-07-02T05:09:21;34.08;;;17.80;;
33148;SDS011;19506;51.040;3.856;2023-07-02T05:11:47;52.80;;;21.95;;
33148;SDS011;19506;51.040;3.856;2023-07-02T05:14:12;51.10;;;21.58;;
33148;SDS011;19506;51.040;3.856;2023-07-02T05:16:38;35.67;;;17.80;;
33148;SDS011;19506;51.040;3.856;2023-07-02T05:19:03;35.85;;;18.27;;
33148;SDS011;19506;51.040;3.856;2023-07-02T05:21:29;37.55;;;17.90;;
33148;SDS011;19506;51.040;3.856;2023-07-02T05:23:55;40.05;;;19.08;;
33148;SDS011;19506;51.040;3.856;2023-07-02T05:26:20;29.60;;;17.02;;
33148;SDS011;19506;51.040;3.856;2023-07-02T05:28:46;34.58;;;17.77;;
33148;SDS011;19506;51.040;3.856;2023-07-02T05:31:13;35.53;;;18.60;;
33148;SDS011;19506;51.040;3.856;2023-07-02T05:33:38;36.45;;;17.92;;
33148;SDS011;19506;51.040;3.856;2023-07-02T05:36:04;38.35;;;17.50;;
33148;SDS011;19506;51.040;3.856;2023-07-02T05:38:30;38.58;;;18.55;;
33148;SDS011;19506;51.040;3.856;2023-07-02T05:40:55;43.70;;;17.83;;
33148;SDS011;19506;51.040;3.856;2023-07-02T05:43:22;35.33;;;15.95;;
33148;SDS011;19506;51.040;3.856;2023-07-02T05:45:49;31.70;;;16.08;;
33148;SDS011;19506;51.040;3.856;2023-07-02T05:48:16;32.40;;;16.98;;
33148;SDS011;19506;51.040;3.856;2023-07-02T05:50:41;37.30;;;17.10;;
33148;SDS011;19506;51.040;3.856;2023-07-02T05:53:07;36.42;;;15.45;;
33148;SDS011;19506;51.040;3.856;2023-07-02T05:55:34;31.95;;;14.68;;
33148;SDS011;19506;51.040;3.856;2023-07-02T05:58:00;29.58;;;15.27;;
33148;SDS011;19506;51.040;3.856;2023-07-02T06:00:28;35.45;;;14.02;;
33148;SDS011;19506;51.040;3.856;2023-07-02T06:02:54;30.98;;;15.50;;
33148;SDS011;19506;51.040;3.856;2023-07-02T06:05:19;28.25;;;15.77;;
33148;SDS011;19506;51.040;3.856;2023-07-02T06:07:45;31.70;;;14.88;;
33148;SDS011;19506;51.040;3.856;2023-07-02T06:10:11;30.75;;;14.88;;
33148;SDS011;19506;51.040;3.856;2023-07-02T06:12:37;26.70;;;14.45;;
33148;SDS011;19506;51.040;3.856;2023-07-02T06:15:03;30.02;;;15.40;;
33148;SDS011;19506;51.040;3.856;2023-07-02T06:17:29;29.73;;;13.80;;
33148;SDS011;19506;51.040;3.856;2023-07-02T06:19:56;22.73;;;14.05;;
33148;SDS011;19506;51.040;3.856;2023-07-02T06:22:22;23.88;;;13.45;;
33148;SDS011;19506;51.040;3.856;2023-07-02T06:24:48;26.52;;;13.68;;
33148;SDS011;19506;51.040;3.856;2023-07-02T06:27:14;26.90;;;12.70;;
33148;SDS011;19506;51.040;3.856;2023-07-02T06:29:40;29.15;;;13.68;;
33148;SDS011;19506;51.040;3.856;2023-07-02T06:32:05;24.23;;;14.90;;
33148;SDS011;19506;51.040;3.856;2023-07-02T06:34:31;24.60;;;13.80;;
33148;SDS011;19506;51.040;3.856;2023-07-02T06:36:57;25.95;;;12.65;;
33148;SDS011;19506;51.040;3.856;2023-07-02T06:39:22;26.42;;;13.43;;
33148;SDS011;19506;51.040;3.856;2023-07-02T06:41:48;25.67;;;11.90;;
33148;SDS011;19506;51.040;3.856;2023-07-02T06:44:14;27.02;;;13.00;;
33148;SDS011;19506;51.040;3.856;2023-07-02T06:46:39;34.45;;;14.02;;
33148;SDS011;19506;51.040;3.856;2023-07-02T06:49:05;30.00;;;11.07;;
33148;SDS011;19506;51.040;3.856;2023-07-02T06:51:31;28.67;;;11.18;;
33148;SDS011;19506;51.040;3.856;2023-07-02T06:53:59;32.17;;;13.07;;
33148;SDS011;19506;51.040;3.856;2023-07-02T06:56:24;24.60;;;10.77;;
33148;SDS011;19506;51.040;3.856;2023-07-02T06:58:50;20.13;;;10.25;;
33148;SDS011;19506;51.040;3.856;2023-07-02T07:01:17;28.52;;;11.27;;
33148;SDS011;19506;51.040;3.856;2023-07-02T07:03:43;22.17;;;11.90;;
33148;SDS011;19506;51.040;3.856;2023-07-02T07:06:08;22.50;;;10.32;;
33148;SDS011;19506;51.040;3.856;2023-07-02T07:08:36;29.20;;;12.13;;
33148;SDS011;19506;51.040;3.856;2023-07-02T07:11:03;22.38;;;10.23;;
33148;SDS011;19506;51.040;3.856;2023-07-02T07:13:29;17.13;;;8.88;;
33148;SDS011;19506;51.040;3.856;2023-07-02T07:15:55;18.52;;;11.50;;
33148;SDS011;19506;51.040;3.856;2023-07-02T07:18:20;17.65;;;10.07;;
33148;SDS011;19506;51.040;3.856;2023-07-02T07:20:46;19.88;;;8.85;;
33148;SDS011;19506;51.040;3.856;2023-07-02T07:23:12;16.00;;;9.32;;
33148;SDS011;19506;51.040;3.856;2023-07-02T07:25:37;21.23;;;11.23;;
33148;SDS011;19506;51.040;3.856;2023-07-02T07:28:03;22.35;;;10.55;;
33148;SDS011;19506;51.040;3.856;2023-07-02T07:30:29;18.05;;;9.90;;
33148;SDS011;19506;51.040;3.856;2023-07-02T07:32:55;19.15;;;9.10;;
33148;SDS011;19506;51.040;3.856;2023-07-02T07:35:21;21.10;;;9.80;;
33148;SDS011;19506;51.040;3.856;2023-07-02T07:37:47;22.40;;;10.75;;
33148;SDS011;19506;51.040;3.856;2023-07-02T07:40:13;22.73;;;10.23;;
33148;SDS011;19506;51.040;3.856;2023-07-02T07:42:40;19.48;;;11.07;;
33148;SDS011;19506;51.040;3.856;2023-07-02T07:45:07;19.75;;;11.20;;
33148;SDS011;19506;51.040;3.856;2023-07-02T07:47:34;29.05;;;11.52;;
33148;SDS011;19506;51.040;3.856;2023-07-02T07:49:59;21.30;;;12.05;;
33148;SDS011;19506;51.040;3.856;2023-07-02T07:52:25;21.75;;;10.68;;
33148;SDS011;19506;51.040;3.856;2023-07-02T07:54:52;23.60;;;12.15;;
33148;SDS011;19506;51.040;3.856;2023-07-02T07:57:18;31.13;;;12.60;;
33148;SDS011;19506;51.040;3.856;2023-07-02T07:59:43;18.55;;;10.93;;
33148;SDS011;19506;51.040;3.856;2023-07-02T08:02:09;25.00;;;10.65;;
33148;SDS011;19506;51.040;3.856;2023-07-02T08:04:35;29.33;;;11.18;;
33148;SDS011;19506;51.040;3.856;2023-07-02T08:07:00;21.23;;;10.50;;
33148;SDS011;19506;51.040;3.856;2023-07-02T08:09:29;21.83;;;10.50;;
33148;SDS011;19506;51.040;3.856;2023-07-02T08:11:55;22.42;;;11.10;;
33148;SDS011;19506;51.040;3.856;2023-07-02T08:14:20;25.15;;;11.80;;
33148;SDS011;19506;51.040;3.856;2023-07-02T08:16:46;22.17;;;11.15;;
33148;SDS011;19506;51.040;3.856;2023-07-02T08:19:11;17.60;;;10.75;;
33148;SDS011;19506;51.040;3.856;2023-07-02T08:21:37;21.73;;;11.18;;
33148;SDS011;19506;51.040;3.856;2023-07-02T08:24:03;25.08;;;11.52;;
33148;SDS011;19506;51.040;3.856;2023-07-02T08:26:29;27.17;;;12.05;;
33148;SDS011;19506;51.040;3.856;2023-07-02T08:28:56;20.30;;;11.25;;
33148;SDS011;19506;51.040;3.856;2023-07-02T08:31:21;23.83;;;11.38;;
33148;SDS011;19506;51.040;3.856;2023-07-02T08:33:47;18.27;;;10.05;;
33148;SDS011;19506;51.040;3.856;2023-07-02T08:36:12;22.67;;;10.38;;
33148;SDS011;19506;51.040;3.856;2023-07-02T08:38:39;24.35;;;11.45;;
33148;SDS011;19506;51.040;3.856;2023-07-02T08:41:07;33.60;;;12.77;;
33148;SDS011;19506;51.040;3.856;2023-07-02T08:43:33;35.53;;;13.90;;
33148;SDS011;19506;51.040;3.856;2023-07-02T08:45:59;25.27;;;12.52;;
33148;SDS011;19506;51.040;3.856;2023-07-02T08:48:25;27.60;;;12.00;;
33148;SDS011;19506;51.040;3.856;2023-07-02T08:50:53;44.80;;;13.30;;
33148;SDS011;19506;51.040;3.856;2023-07-02T08:53:19;29.65;;;13.43;;
33148;SDS011;19506;51.040;3.856;2023-07-02T08:55:50;28.13;;;12.80;;
33148;SDS011;19506;51.040;3.856;2023-07-02T08:58:16;23.20;;;11.25;;
33148;SDS011;19506;51.040;3.856;2023-07-02T09:01:03;27.52;;;10.70;;
33148;SDS011;19506;51.040;3.856;2023-07-02T09:03:34;24.65;;;11.82;;
33148;SDS011;19506;51.040;3.856;2023-07-02T09:06:02;28.30;;;12.10;;
33148;SDS011;19506;51.040;3.856;2023-07-02T09:08:28;26.90;;;11.93;;
33148;SDS011;19506;51.040;3.856;2023-07-02T09:10:54;24.65;;;10.60;;
33148;SDS011;19506;51.040;3.856;2023-07-02T09:15:56;27.77;;;12.23;;
33148;SDS011;19506;51.040;3.856;2023-07-02T09:18:22;34.00;;;12.30;;
33148;SDS011;19506;51.040;3.856;2023-07-02T09:20:50;34.50;;;13.32;;
33148;SDS011;19506;51.040;3.856;2023-07-02T09:23:18;33.15;;;11.57;;
33148;SDS011;19506;51.040;3.856;2023-07-02T09:25:45;30.23;;;12.57;;
33148;SDS011;19506;51.040;3.856;2023-07-02T09:28:15;31.70;;;12.93;;
33148;SDS011;19506;51.040;3.856;2023-07-02T09:30:48;31.30;;;12.30;;
33148;SDS011;19506;51.040;3.856;2023-07-02T09:33:15;24.63;;;11.25;;
33148;SDS011;19506;51.040;3.856;2023-07-02T09:35:41;27.48;;;12.43;;
33148;SDS011;19506;51.040;3.856;2023-07-02T09:38:07;33.85;;;11.88;;
33148;SDS011;19506;51.040;3.856;2023-07-02T09:40:33;31.05;;;12.10;;
33148;SDS011;19506;51.040;3.856;2023-07-02T09:43:01;33.90;;;12.55;;
33148;SDS011;19506;51.040;3.856;2023-07-02T09:45:27;25.13;;;11.68;;
33148;SDS011;19506;51.040;3.856;2023-07-02T09:47:53;38.97;;;14.52;;
33148;SDS011;19506;51.040;3.856;2023-07-02T09:50:20;33.95;;;12.55;;
33148;SDS011;19506;51.040;3.856;2023-07-02T09:52:47;37.58;;;11.98;;
33148;SDS011;19506;51.040;3.856;2023-07-02T09:55:14;30.75;;;12.95;;
33148;SDS011;19506;51.040;3.856;2023-07-02T09:57:40;31.35;;;12.70;;
33148;SDS011;19506;51.040;3.856;2023-07-02T10:00:09;28.13;;;12.05;;
33148;SDS011;19506;51.040;3.856;2023-07-02T10:02:35;31.45;;;12.60;;
33148;SDS011;19506;51.040;3.856;2023-07-02T10:05:01;31.80;;;12.00;;
33148;SDS011;19506;51.040;3.856;2023-07-02T10:07:28;31.13;;;12.18;;
33148;SDS011;19506;51.040;3.856;2023-07-02T10:09:54;29.85;;;12.23;;
33148;SDS011;19506;51.040;3.856;2023-07-02T10:12:21;27.85;;;11.30;;
33148;SDS011;19506;51.040;3.856;2023-07-02T10:14:48;31.77;;;12.27;;
33148;SDS011;19506;51.040;3.856;2023-07-02T10:17:27;31.52;;;11.90;;
33148;SDS011;19506;51.040;3.856;2023-07-02T10:19:56;33.75;;;11.93;;
33148;SDS011;19506;51.040;3.856;2023-07-02T10:22:23;26.95;;;11.65;;
33148;SDS011;19506;51.040;3.856;2023-07-02T10:24:55;25.85;;;9.75;;
33148;SDS011;19506;51.040;3.856;2023-07-02T10:27:40;26.90;;;9.50;;
33148;SDS011;19506;51.040;3.856;2023-07-02T10:30:08;21.08;;;9.95;;
33148;SDS011;19506;51.040;3.856;2023-07-02T10:32:34;32.28;;;10.27;;
33148;SDS011;19506;51.040;3.856;2023-07-02T10:35:12;31.60;;;10.75;;
33148;SDS011;19506;51.040;3.856;2023-07-02T10:37:39;32.80;;;10.70;;
33148;SDS011;19506;51.040;3.856;2023-07-02T10:40:08;25.02;;;10.63;;
33148;SDS011;19506;51.040;3.856;2023-07-02T10:42:48;28.65;;;9.45;;
33148;SDS011;19506;51.040;3.856;2023-07-02T10:45:15;54.35;;;10.23;;
33148;SDS011;19506;51.040;3.856;2023-07-02T10:47:42;27.92;;;10.10;;
33148;SDS011;19506;51.040;3.856;2023-07-02T10:50:18;31.65;;;10.27;;
33148;SDS011;19506;51.040;3.856;2023-07-02T10:52:45;25.73;;;9.27;;
33148;SDS011;19506;51.040;3.856;2023-07-02T10:55:21;26.25;;;9.68;;
33148;SDS011;19506;51.040;3.856;2023-07-02T10:57:48;20.70;;;8.90;;
33148;SDS011;19506;51.040;3.856;2023-07-02T11:00:17;24.48;;;9.45;;
33148;SDS011;19506;51.040;3.856;2023-07-02T11:02:44;25.63;;;9.18;;
33148;SDS011;19506;51.040;3.856;2023-07-02T11:05:10;25.13;;;8.93;;
33148;SDS011;19506;51.040;3.856;2023-07-02T11:07:39;24.40;;;9.45;;
33148;SDS011;19506;51.040;3.856;2023-07-02T11:10:06;23.20;;;8.15;;
33148;SDS011;19506;51.040;3.856;2023-07-02T11:12:33;19.00;;;7.50;;
33148;SDS011;19506;51.040;3.856;2023-07-02T11:15:08;35.35;;;9.13;;
33148;SDS011;19506;51.040;3.856;2023-07-02T11:17:44;20.45;;;7.32;;
33148;SDS011;19506;51.040;3.856;2023-07-02T11:20:11;18.35;;;7.68;;
33148;SDS011;19506;51.040;3.856;2023-07-02T11:22:38;23.85;;;7.50;;
33148;SDS011;19506;51.040;3.856;2023-07-02T11:25:37;28.17;;;8.18;;
33148;SDS011;19506;51.040;3.856;2023-07-02T11:28:05;26.27;;;7.90;;
33148;SDS011;19506;51.040;3.856;2023-07-02T11:30:31;24.80;;;8.45;;
33148;SDS011;19506;51.040;3.856;2023-07-02T11:32:57;28.50;;;9.05;;
33148;SDS011;19506;51.040;3.856;2023-07-02T11:35:33;27.45;;;8.10;;
33148;SDS011;19506;51.040;3.856;2023-07-02T11:38:00;26.75;;;8.98;;
33148;SDS011;19506;51.040;3.856;2023-07-02T11:40:26;29.33;;;9.95;;
33148;SDS011;19506;51.040;3.856;2023-07-02T11:42:51;30.20;;;10.35;;
33148;SDS011;19506;51.040;3.856;2023-07-02T11:45:17;42.65;;;10.68;;
33148;SDS011;19506;51.040;3.856;2023-07-02T11:47:42;36.22;;;10.50;;
33148;SDS011;19506;51.040;3.856;2023-07-02T11:50:08;31.55;;;11.05;;
33148;SDS011;19506;51.040;3.856;2023-07-02T11:52:35;26.08;;;9.75;;
33148;SDS011;19506;51.040;3.856;2023-07-02T11:55:00;39.47;;;10.52;;
33148;SDS011;19506;51.040;3.856;2023-07-02T11:57:26;36.38;;;11.02;;
33148;SDS011;19506;51.040;3.856;2023-07-02T11:59:52;30.52;;;9.98;;
33148;SDS011;19506;51.040;3.856;2023-07-02T12:02:18;26.83;;;8.75;;
33148;SDS011;19506;51.040;3.856;2023-07-02T12:04:44;27.52;;;10.35;;
33148;SDS011;19506;51.040;3.856;2023-07-02T12:07:09;25.38;;;9.02;;
33148;SDS011;19506;51.040;3.856;2023-07-02T12:09:35;26.13;;;8.82;;
33148;SDS011;19506;51.040;3.856;2023-07-02T12:12:01;31.15;;;9.23;;
33148;SDS011;19506;51.040;3.856;2023-07-02T12:14:27;22.13;;;7.97;;
33148;SDS011;19506;51.040;3.856;2023-07-02T12:16:53;24.13;;;8.77;;
33148;SDS011;19506;51.040;3.856;2023-07-02T12:19:19;20.63;;;8.00;;
33148;SDS011;19506;51.040;3.856;2023-07-02T12:21:44;28.40;;;8.32;;
33148;SDS011;19506;51.040;3.856;2023-07-02T12:24:10;26.13;;;10.07;;
33148;SDS011;19506;51.040;3.856;2023-07-02T12:26:36;21.70;;;8.80;;
33148;SDS011;19506;51.040;3.856;2023-07-02T12:29:02;17.48;;;8.27;;
33148;SDS011;19506;51.040;3.856;2023-07-02T12:31:29;20.52;;;8.27;;
33148;SDS011;19506;51.040;3.856;2023-07-02T12:33:55;26.00;;;9.15;;
33148;SDS011;19506;51.040;3.856;2023-07-02T12:36:20;21.48;;;8.38;;
33148;SDS011;19506;51.040;3.856;2023-07-02T12:38:46;20.45;;;8.25;;
33148;SDS011;19506;51.040;3.856;2023-07-02T12:41:12;16.83;;;7.80;;
33148;SDS011;19506;51.040;3.856;2023-07-02T12:43:37;16.58;;;7.68;;
33148;SDS011;19506;51.040;3.856;2023-07-02T12:46:03;17.52;;;8.00;;
33148;SDS011;19506;51.040;3.856;2023-07-02T12:48:29;22.42;;;8.73;;
33148;SDS011;19506;51.040;3.856;2023-07-02T12:50:58;25.33;;;8.13;;
33148;SDS011;19506;51.040;3.856;2023-07-02T12:53:24;20.15;;;8.15;;
33148;SDS011;19506;51.040;3.856;2023-07-02T12:55:51;21.10;;;8.30;;
33148;SDS011;19506;51.040;3.856;2023-07-02T12:58:16;21.77;;;9.10;;
33148;SDS011;19506;51.040;3.856;2023-07-02T13:00:43;20.15;;;8.63;;
33148;SDS011;19506;51.040;3.856;2023-07-02T13:03:10;21.75;;;7.40;;
33148;SDS011;19506;51.040;3.856;2023-07-02T13:05:37;20.85;;;7.70;;
33148;SDS011;19506;51.040;3.856;2023-07-02T13:08:03;18.17;;;7.50;;
33148;SDS011;19506;51.040;3.856;2023-07-02T13:10:29;18.48;;;9.00;;
33148;SDS011;19506;51.040;3.856;2023-07-02T13:12:56;23.67;;;8.52;;
33148;SDS011;19506;51.040;3.856;2023-07-02T13:15:22;23.65;;;8.20;;
33148;SDS011;19506;51.040;3.856;2023-07-02T13:17:47;22.20;;;8.30;;
33148;SDS011;19506;51.040;3.856;2023-07-02T13:20:13;20.85;;;8.13;;
33148;SDS011;19506;51.040;3.856;2023-07-02T13:22:39;15.82;;;6.85;;
33148;SDS011;19506;51.040;3.856;2023-07-02T13:25:05;16.95;;;7.63;;
33148;SDS011;19506;51.040;3.856;2023-07-02T13:27:32;17.58;;;8.32;;
33148;SDS011;19506;51.040;3.856;2023-07-02T13:29:58;15.73;;;7.28;;
33148;SDS011;19506;51.040;3.856;2023-07-02T13:32:24;17.60;;;7.60;;
33148;SDS011;19506;51.040;3.856;2023-07-02T13:34:49;19.38;;;8.20;;
33148;SDS011;19506;51.040;3.856;2023-07-02T13:37:15;22.30;;;8.63;;
33148;SDS011;19506;51.040;3.856;2023-07-02T13:39:46;16.23;;;7.07;;
33148;SDS011;19506;51.040;3.856;2023-07-02T13:42:13;21.50;;;7.50;;
33148;SDS011;19506;51.040;3.856;2023-07-02T13:44:39;17.95;;;7.47;;
33148;SDS011;19506;51.040;3.856;2023-07-02T13:47:05;17.75;;;6.90;;
33148;SDS011;19506;51.040;3.856;2023-07-02T13:49:31;19.35;;;8.02;;
33148;SDS011;19506;51.040;3.856;2023-07-02T13:51:58;16.77;;;8.10;;
33148;SDS011;19506;51.040;3.856;2023-07-02T13:54:24;16.17;;;6.43;;
33148;SDS011;19506;51.040;3.856;2023-07-02T13:56:49;20.02;;;8.23;;
33148;SDS011;19506;51.040;3.856;2023-07-02T13:59:16;17.95;;;7.20;;
33148;SDS011;19506;51.040;3.856;2023-07-02T14:01:42;20.17;;;7.20;;
33148;SDS011;19506;51.040;3.856;2023-07-02T14:04:09;21.92;;;7.47;;
33148;SDS011;19506;51.040;3.856;2023-07-02T14:06:35;18.55;;;7.40;;
33148;SDS011;19506;51.040;3.856;2023-07-02T14:09:01;23.52;;;7.88;;
33148;SDS011;19506;51.040;3.856;2023-07-02T14:11:27;20.25;;;7.63;;
33148;SDS011;19506;51.040;3.856;2023-07-02T14:13:54;22.15;;;7.50;;
33148;SDS011;19506;51.040;3.856;2023-07-02T14:16:20;15.73;;;6.78;;
33148;SDS011;19506;51.040;3.856;2023-07-02T14:18:46;17.15;;;7.15;;
33148;SDS011;19506;51.040;3.856;2023-07-02T14:21:12;20.42;;;9.27;;
33148;SDS011;19506;51.040;3.856;2023-07-02T14:23:38;20.58;;;7.82;;
33148;SDS011;19506;51.040;3.856;2023-07-02T14:26:04;15.88;;;6.70;;